CheckWX is a tool to help pilots better visualize weather data.  It is not intended as a substitute for an official pre-flight weather briefing.

04:42:00 UTC

KMSL TAF
Northwest Alabama Regional Airport
Muscle Shoals, Alabama, USA
KMSL 222320Z 2300/2324 27005KT P6SM SCT050 FM230100 35008KT P6SM VCSH SCT050 FM230300 VRB02KT P6SM FEW050 FM231500 26004KT P6SM VCSH SCT040 BKN060 FM231900 VRB05KT P6SM VCSH BKN040 OVC250

Aug-23@
00:00 UTC

Aug-23 @ 00:00 UTC

Aug-23@
01:00 UTC

Aug-23 @ 01:00 UTC

KMSL 222320Z 2300/2324 27005KT P6SM SCT050

Expired

Wind
  • 270° at 5 KTS
Cloud Levels
  • Scattered at 5,000' AGL

Aug-23@
01:00 UTC

Aug-23 @ 01:00 UTC

Aug-23@
03:00 UTC

Aug-23 @ 03:00 UTC

FM230100 35008KT P6SM VCSH SCT050

Expired

Wind
  • 350° at 8 KTS
Cloud Levels
  • Scattered at 5,000' AGL

Aug-23@
03:00 UTC

Aug-23 @ 03:00 UTC

Aug-23@
15:00 UTC

Aug-23 @ 15:00 UTC

FM230300 VRB02KT P6SM FEW050

From

From Standard forecast or significant change

Wind
  • Variable at 2 KTS
Cloud Levels
  • Few at 5,000' AGL

Aug-23@
15:00 UTC

Aug-23 @ 15:00 UTC

Aug-23@
19:00 UTC

Aug-23 @ 19:00 UTC

FM231500 26004KT P6SM VCSH SCT040 BKN060

From

From Standard forecast or significant change

Wind
  • 260° at 4 KTS
Cloud Levels
  • Scattered at 4,000' AGL
  • Broken at 6,000' AGL

Aug-23@
19:00 UTC

Aug-23 @ 19:00 UTC

Aug-24@
00:00 UTC

Aug-24 @ 00:00 UTC

FM231900 VRB05KT P6SM VCSH BKN040 OVC250

From

From Standard forecast or significant change

Wind
  • Variable at 5 KTS
Cloud Levels
  • Broken at 4,000' AGL
  • Overcast at 25,000' AGL